createdAt,value
2023-04-09T00:00:38.893Z,35.03
2023-04-09T00:03:05.153Z,37.85
2023-04-09T00:05:31.156Z,36.85
2023-04-09T00:07:57.076Z,35.00
2023-04-09T00:10:23.016Z,36.42
2023-04-09T00:12:49.036Z,39.08
2023-04-09T00:15:27.773Z,38.80
2023-04-09T00:17:56.416Z,36.33
2023-04-09T00:20:22.401Z,35.92
2023-04-09T00:22:49.180Z,34.63
2023-04-09T00:25:15.258Z,37.55
2023-04-09T00:27:41.167Z,36.53
2023-04-09T00:30:07.851Z,35.55
2023-04-09T00:32:33.744Z,38.00
2023-04-09T00:34:59.684Z,34.85
2023-04-09T00:37:25.741Z,41.35
2023-04-09T00:39:51.693Z,35.78
2023-04-09T00:42:17.649Z,36.88
2023-04-09T00:44:43.681Z,35.58
2023-04-09T00:47:10.098Z,37.22
2023-04-09T00:49:36.163Z,37.33
2023-04-09T00:52:02.227Z,34.88
2023-04-09T00:54:28.206Z,36.13
2023-04-09T00:56:56.150Z,35.70
2023-04-09T00:59:24.144Z,36.67
2023-04-09T01:01:50.177Z,32.92
2023-04-09T01:04:16.670Z,38.03
2023-04-09T01:06:50.864Z,37.72
2023-04-09T01:09:27.860Z,35.85
2023-04-09T01:12:18.357Z,34.50
2023-04-09T01:15:02.566Z,35.95
2023-04-09T01:17:43.723Z,33.83
2023-04-09T01:20:12.979Z,30.70
2023-04-09T01:22:59.442Z,32.05
2023-04-09T01:25:28.162Z,31.73
2023-04-09T01:28:25.296Z,34.28
2023-04-09T01:30:56.987Z,33.95
2023-04-09T01:33:24.892Z,32.25
2023-04-09T01:35:52.782Z,32.05
2023-04-09T01:38:21.189Z,33.75
2023-04-09T01:40:49.073Z,30.70
2023-04-09T01:43:15.323Z,29.23
2023-04-09T01:45:43.638Z,28.65
2023-04-09T01:48:09.971Z,28.75
2023-04-09T01:50:36.719Z,30.83
2023-04-09T01:53:03.488Z,28.17
2023-04-09T01:55:29.472Z,25.52
2023-04-09T01:57:55.475Z,28.08
2023-04-09T02:00:22.495Z,27.10
2023-04-09T02:02:55.402Z,23.08
2023-04-09T02:05:26.453Z,24.60
2023-04-09T02:07:55.613Z,23.00
2023-04-09T02:10:28.589Z,22.63
2023-04-09T02:12:55.802Z,18.88
2023-04-09T02:15:24.102Z,21.02
2023-04-09T02:17:50.080Z,20.52
2023-04-09T02:20:26.197Z,19.58
2023-04-09T02:22:57.339Z,19.40
2023-04-09T02:25:24.559Z,18.65
2023-04-09T02:27:50.471Z,19.60
2023-04-09T02:30:16.339Z,20.85
2023-04-09T02:32:42.314Z,17.52
2023-04-09T02:35:08.368Z,15.57
2023-04-09T02:37:34.261Z,13.65
2023-04-09T02:40:00.155Z,19.10
2023-04-09T02:42:26.084Z,17.08
2023-04-09T02:44:51.993Z,16.55
2023-04-09T02:47:17.984Z,15.15
2023-04-09T02:49:43.918Z,17.95
2023-04-09T02:52:10.710Z,14.70
2023-04-09T02:54:36.691Z,15.77
2023-04-09T02:57:02.623Z,19.05
2023-04-09T02:59:28.621Z,17.02
2023-04-09T03:01:54.557Z,15.25
2023-04-09T03:04:20.579Z,14.80
2023-04-09T03:06:46.529Z,13.88
2023-04-09T03:09:12.421Z,14.32
2023-04-09T03:11:38.351Z,13.52
2023-04-09T03:14:04.290Z,13.70
2023-04-09T03:16:30.231Z,13.90
2023-04-09T03:18:56.174Z,14.18
2023-04-09T03:21:22.126Z,16.92
2023-04-09T03:23:48.089Z,15.68
2023-04-09T03:26:13.966Z,16.92
2023-04-09T03:28:39.974Z,15.15
2023-04-09T03:31:05.926Z,14.88
2023-04-09T03:33:31.904Z,15.23
2023-04-09T03:35:57.896Z,15.50
2023-04-09T03:38:23.949Z,16.15
2023-04-09T03:40:50.001Z,15.52
2023-04-09T03:43:15.920Z,18.45
2023-04-09T03:45:41.887Z,18.05
2023-04-09T03:48:07.790Z,15.73
2023-04-09T03:50:41.108Z,16.90
2023-04-09T03:53:07.336Z,15.38
2023-04-09T03:55:33.585Z,20.75
2023-04-09T03:57:59.598Z,17.48
2023-04-09T04:00:25.653Z,18.08
2023-04-09T04:02:52.020Z,20.33
2023-04-09T04:05:18.308Z,18.95
2023-04-09T04:07:44.556Z,20.33
2023-04-09T04:10:10.762Z,20.77
2023-04-09T04:12:36.690Z,20.98
2023-04-09T04:15:02.865Z,20.75
2023-04-09T04:17:28.887Z,18.50
2023-04-09T04:19:54.927Z,18.80
2023-04-09T04:22:20.799Z,20.17
2023-04-09T04:24:46.760Z,21.75
2023-04-09T04:27:12.637Z,21.17
2023-04-09T04:29:38.552Z,20.40
2023-04-09T04:32:04.802Z,19.92
2023-04-09T04:34:30.814Z,19.60
2023-04-09T04:36:56.708Z,20.17
2023-04-09T04:39:22.626Z,20.33
2023-04-09T04:41:48.538Z,22.23
2023-04-09T04:44:14.412Z,19.63
2023-04-09T04:46:40.316Z,18.50
2023-04-09T04:49:06.194Z,19.20
2023-04-09T04:51:32.099Z,20.77
2023-04-09T04:53:58.018Z,23.73
2023-04-09T04:56:23.978Z,23.55
2023-04-09T04:58:50.206Z,21.83
2023-04-09T05:01:16.469Z,22.45
2023-04-09T05:03:42.547Z,22.27
2023-04-09T05:06:08.567Z,21.08
2023-04-09T05:08:34.627Z,22.45
2023-04-09T05:11:00.544Z,23.95
2023-04-09T05:13:26.489Z,26.75
2023-04-09T05:15:52.487Z,23.13
2023-04-09T05:18:18.438Z,28.00
2023-04-09T05:20:44.434Z,26.88
2023-04-09T05:23:11.867Z,25.27
2023-04-09T05:25:38.793Z,25.73
2023-04-09T05:28:04.931Z,23.98
2023-04-09T05:30:30.934Z,24.05
2023-04-09T05:32:56.895Z,22.80
2023-04-09T05:35:22.796Z,26.85
2023-04-09T05:37:48.726Z,26.10
2023-04-09T05:40:14.978Z,26.20
2023-04-09T05:42:40.981Z,26.85
2023-04-09T05:45:07.644Z,25.13
2023-04-09T05:47:33.513Z,26.58
2023-04-09T05:50:01.589Z,25.45
2023-04-09T05:52:27.776Z,25.20
2023-04-09T05:54:53.673Z,24.80
2023-04-09T05:57:19.593Z,24.38
2023-04-09T05:59:45.507Z,24.13
2023-04-09T06:02:11.535Z,25.50
2023-04-09T06:04:37.684Z,25.48
2023-04-09T06:07:05.906Z,24.65
2023-04-09T06:09:31.826Z,22.45
2023-04-09T06:11:57.871Z,23.65
2023-04-09T06:14:23.975Z,25.15
2023-04-09T06:16:49.899Z,24.60
2023-04-09T06:19:16.132Z,28.45
2023-04-09T06:21:42.073Z,25.27
2023-04-09T06:24:07.996Z,22.50
2023-04-09T06:26:34.014Z,26.05
2023-04-09T06:28:59.910Z,23.63
2023-04-09T06:31:25.925Z,25.58
2023-04-09T06:33:52.239Z,25.52
2023-04-09T06:36:18.356Z,26.23
2023-04-09T06:38:44.265Z,23.45
2023-04-09T06:41:12.031Z,24.40
2023-04-09T06:43:38.472Z,23.50
2023-04-09T06:46:04.627Z,26.35
2023-04-09T06:48:30.682Z,23.75
2023-04-09T06:50:56.682Z,23.95
2023-04-09T06:53:22.741Z,24.67
2023-04-09T06:55:48.780Z,25.65
2023-04-09T06:58:15.756Z,23.95
2023-04-09T07:00:41.809Z,25.00
2023-04-09T07:03:08.578Z,23.55
2023-04-09T07:05:35.331Z,25.80
2023-04-09T07:08:01.348Z,23.83
2023-04-09T07:10:27.267Z,27.02
2023-04-09T07:12:53.207Z,26.58
2023-04-09T07:15:19.232Z,22.75
2023-04-09T07:17:45.294Z,25.65
2023-04-09T07:20:11.523Z,25.77
2023-04-09T07:22:37.548Z,21.95
2023-04-09T07:25:04.023Z,21.88
2023-04-09T07:27:29.964Z,22.95
2023-04-09T07:29:59.472Z,27.58
2023-04-09T07:32:27.274Z,24.77
2023-04-09T07:34:54.527Z,22.92
2023-04-09T07:37:20.911Z,23.42
2023-04-09T07:39:49.189Z,22.13
2023-04-09T07:42:15.445Z,23.77
2023-04-09T07:44:41.384Z,22.35
2023-04-09T07:47:07.877Z,24.95
2023-04-09T07:49:35.775Z,24.35
2023-04-09T07:52:01.742Z,23.65
2023-04-09T07:54:28.002Z,23.42
2023-04-09T07:56:54.132Z,23.75
2023-04-09T07:59:20.148Z,22.42
2023-04-09T08:01:46.226Z,24.33
2023-04-09T08:04:13.244Z,23.48
2023-04-09T08:06:39.690Z,25.17
2023-04-09T08:09:05.722Z,23.92
2023-04-09T08:11:31.776Z,24.73
2023-04-09T08:14:00.688Z,23.30
2023-04-09T08:16:27.342Z,25.02
2023-04-09T08:18:53.856Z,23.67
2023-04-09T08:21:20.066Z,23.48
2023-04-09T08:23:46.031Z,25.55
2023-04-09T08:26:11.930Z,23.52
2023-04-09T08:28:37.828Z,21.98
2023-04-09T08:31:03.997Z,24.45
2023-04-09T08:33:31.189Z,24.90
2023-04-09T08:35:57.266Z,18.75
2023-04-09T08:38:23.211Z,19.10
2023-04-09T08:40:49.217Z,22.05
2023-04-09T08:43:15.941Z,20.70
2023-04-09T08:45:42.685Z,14.65
2023-04-09T08:48:13.654Z,12.20
2023-04-09T08:50:40.100Z,9.40
2023-04-09T08:53:08.984Z,11.40
2023-04-09T08:55:36.560Z,10.35
2023-04-09T08:58:09.939Z,12.27
2023-04-09T09:00:37.243Z,10.50
2023-04-09T09:03:08.151Z,11.88
2023-04-09T09:05:42.529Z,12.23
2023-04-09T09:08:21.871Z,12.57
2023-04-09T09:10:48.022Z,11.95
2023-04-09T09:13:27.304Z,14.52
2023-04-09T09:16:10.467Z,10.55
2023-04-09T09:18:41.480Z,10.70
2023-04-09T09:21:14.995Z,10.65
2023-04-09T09:23:42.044Z,11.82
2023-04-09T09:26:12.935Z,11.88
2023-04-09T09:28:39.053Z,12.18
2023-04-09T09:31:09.319Z,11.38
2023-04-09T09:33:35.774Z,13.20
2023-04-09T09:36:03.345Z,10.55
2023-04-09T09:38:30.068Z,10.75
2023-04-09T09:40:56.044Z,11.88
2023-04-09T09:43:22.438Z,10.77
2023-04-09T09:45:48.904Z,9.43
2023-04-09T09:48:15.194Z,11.52
2023-04-09T09:50:42.386Z,10.27
2023-04-09T09:53:16.826Z,11.43
2023-04-09T09:55:48.671Z,10.85
2023-04-09T09:58:26.416Z,10.00
2023-04-09T10:00:52.597Z,9.57
2023-04-09T10:03:25.267Z,9.07
2023-04-09T10:05:52.778Z,9.32
2023-04-09T10:08:21.041Z,9.68
2023-04-09T10:10:48.662Z,12.52
2023-04-09T10:13:54.140Z,11.38
2023-04-09T10:16:22.486Z,9.40
2023-04-09T10:18:48.576Z,9.13
2023-04-09T10:21:24.224Z,10.07
2023-04-09T10:23:51.389Z,10.75
2023-04-09T10:26:19.244Z,11.68
2023-04-09T10:28:45.166Z,12.60
2023-04-09T10:31:11.285Z,10.77
2023-04-09T10:33:38.025Z,9.60
2023-04-09T10:36:09.196Z,10.30
2023-04-09T10:38:40.597Z,12.05
2023-04-09T10:41:08.931Z,11.13
2023-04-09T10:43:37.805Z,10.10
2023-04-09T10:46:05.786Z,11.60
2023-04-09T10:48:34.426Z,10.20
2023-04-09T10:51:05.927Z,9.43
2023-04-09T10:53:32.065Z,11.77
2023-04-09T10:55:58.056Z,8.73
2023-04-09T10:58:24.067Z,10.18
2023-04-09T11:00:51.086Z,10.07
2023-04-09T11:03:26.764Z,9.85
2023-04-09T11:06:08.545Z,9.43
2023-04-09T11:08:35.840Z,9.48
2023-04-09T11:11:02.865Z,9.02
2023-04-09T11:13:30.567Z,8.27
2023-04-09T11:16:00.734Z,8.65
2023-04-09T11:18:28.529Z,9.60
2023-04-09T11:20:56.764Z,9.43
2023-04-09T11:23:24.382Z,9.45
2023-04-09T11:25:50.940Z,10.27
2023-04-09T11:28:17.974Z,9.05
2023-04-09T11:30:46.118Z,9.00
2023-04-09T11:33:12.697Z,9.15
2023-04-09T11:35:38.796Z,8.48
2023-04-09T11:38:09.104Z,8.63
2023-04-09T11:40:35.726Z,8.00
2023-04-09T11:43:02.554Z,8.25
2023-04-09T11:45:31.129Z,8.20
2023-04-09T11:47:57.632Z,7.90
2023-04-09T11:50:24.294Z,8.25
2023-04-09T11:52:50.319Z,7.75
2023-04-09T11:55:26.775Z,9.23
2023-04-09T11:57:56.768Z,8.40
2023-04-09T12:00:24.209Z,8.40
2023-04-09T12:03:00.657Z,7.90
2023-04-09T12:05:31.797Z,9.13
2023-04-09T12:08:04.515Z,8.07
2023-04-09T12:10:33.156Z,9.68
2023-04-09T12:13:06.200Z,8.80
2023-04-09T12:15:34.142Z,9.55
2023-04-09T12:18:00.856Z,8.52
2023-04-09T12:20:39.001Z,9.68
2023-04-09T12:23:06.140Z,7.90
2023-04-09T12:25:39.040Z,8.88
2023-04-09T12:28:07.184Z,8.18
2023-04-09T12:30:33.812Z,7.97
2023-04-09T12:33:00.386Z,7.70
2023-04-09T12:35:26.601Z,7.38
2023-04-09T12:37:52.968Z,7.97
2023-04-09T12:40:19.728Z,9.13
2023-04-09T12:42:46.056Z,8.77
2023-04-09T12:45:14.823Z,8.50
2023-04-09T12:47:41.056Z,6.72
2023-04-09T12:50:08.849Z,8.38
2023-04-09T12:52:35.103Z,8.48
2023-04-09T12:55:07.653Z,8.43
2023-04-09T12:57:34.051Z,7.63
2023-04-09T13:00:01.629Z,9.10
2023-04-09T13:02:29.340Z,7.57
2023-04-09T13:04:55.343Z,6.95
2023-04-09T13:07:22.153Z,8.45
2023-04-09T13:09:49.708Z,7.82
2023-04-09T13:12:16.893Z,8.27
2023-04-09T13:14:44.447Z,8.85
2023-04-09T13:17:10.531Z,7.25
2023-04-09T13:19:36.548Z,7.10
2023-04-09T13:22:02.834Z,6.60
2023-04-09T13:24:28.855Z,7.32
2023-04-09T13:26:54.836Z,8.00
2023-04-09T13:29:21.352Z,8.23
2023-04-09T13:31:47.300Z,7.90
2023-04-09T13:34:13.151Z,7.28
2023-04-09T13:36:39.184Z,6.90
2023-04-09T13:39:05.300Z,6.30
2023-04-09T13:41:34.306Z,7.40
2023-04-09T13:44:00.938Z,6.93
2023-04-09T13:46:27.462Z,7.15
2023-04-09T13:48:56.540Z,9.40
2023-04-09T13:51:23.040Z,7.40
2023-04-09T13:53:50.290Z,9.07
2023-04-09T13:56:16.194Z,7.15
2023-04-09T13:58:43.186Z,6.85
2023-04-09T14:01:10.650Z,7.15
2023-04-09T14:03:40.049Z,7.45
2023-04-09T14:06:10.247Z,6.93
2023-04-09T14:08:36.523Z,6.47
2023-04-09T14:11:03.045Z,6.30
2023-04-09T14:13:29.140Z,6.22
2023-04-09T14:15:55.578Z,8.80
2023-04-09T14:18:21.738Z,7.10
2023-04-09T14:20:47.742Z,6.70
2023-04-09T14:23:13.774Z,6.82
2023-04-09T14:25:39.757Z,6.05
2023-04-09T14:28:05.952Z,6.95
2023-04-09T14:30:32.175Z,6.50
2023-04-09T14:32:58.378Z,7.00
2023-04-09T14:35:24.910Z,7.03
2023-04-09T14:37:50.888Z,8.00
2023-04-09T14:40:16.883Z,6.35
2023-04-09T14:42:42.941Z,6.78
2023-04-09T14:45:09.484Z,8.00
2023-04-09T14:47:35.595Z,7.85
2023-04-09T14:50:01.960Z,7.47
2023-04-09T14:52:29.847Z,6.57
2023-04-09T14:54:56.607Z,6.53
2023-04-09T14:57:22.576Z,6.38
2023-04-09T14:59:48.513Z,5.90
2023-04-09T15:02:14.997Z,6.75
2023-04-09T15:04:41.131Z,7.93
2023-04-09T15:07:07.701Z,5.47
2023-04-09T15:09:33.747Z,6.85
2023-04-09T15:12:00.947Z,6.55
2023-04-09T15:14:30.956Z,5.90
2023-04-09T15:16:57.047Z,6.85
2023-04-09T15:19:23.500Z,7.43
2023-04-09T15:21:49.545Z,7.50
2023-04-09T15:24:15.659Z,7.25
2023-04-09T15:26:41.754Z,6.53
2023-04-09T15:29:08.054Z,7.32
2023-04-09T15:31:34.251Z,6.60
2023-04-09T15:34:00.516Z,7.65
2023-04-09T15:36:28.696Z,6.30
2023-04-09T15:38:55.450Z,5.95
2023-04-09T15:41:23.383Z,5.53
2023-04-09T15:43:51.031Z,6.35
2023-04-09T15:46:17.710Z,5.05
2023-04-09T15:48:44.923Z,4.90
2023-04-09T15:51:11.488Z,5.38
2023-04-09T15:53:37.498Z,8.48
2023-04-09T15:56:04.811Z,6.18
2023-04-09T15:58:31.477Z,6.32
2023-04-09T16:00:57.735Z,7.28
2023-04-09T16:03:24.273Z,5.90
2023-04-09T16:05:50.516Z,5.35
2023-04-09T16:08:16.677Z,5.97
2023-04-09T16:10:42.648Z,7.20
2023-04-09T16:13:08.752Z,5.90
2023-04-09T16:15:35.371Z,9.38
2023-04-09T16:18:01.828Z,5.65
2023-04-09T16:20:28.833Z,6.03
2023-04-09T16:22:55.089Z,5.75
2023-04-09T16:25:21.171Z,5.88
2023-04-09T16:27:47.085Z,5.72
2023-04-09T16:30:13.108Z,5.35
2023-04-09T16:32:39.026Z,6.13
2023-04-09T16:35:05.760Z,6.82
2023-04-09T16:37:31.812Z,6.15
2023-04-09T16:39:58.268Z,5.75
2023-04-09T16:42:26.140Z,6.30
2023-04-09T16:44:52.404Z,5.35
2023-04-09T16:47:18.353Z,5.20
2023-04-09T16:49:44.260Z,5.88
2023-04-09T16:52:10.443Z,5.50
2023-04-09T16:54:36.445Z,6.40
2023-04-09T16:57:02.466Z,5.55
2023-04-09T16:59:31.772Z,7.22
2023-04-09T17:01:57.747Z,6.45
2023-04-09T17:04:23.760Z,5.40
2023-04-09T17:06:49.777Z,4.68
2023-04-09T17:09:15.818Z,5.90
2023-04-09T17:11:41.822Z,5.20
2023-04-09T17:14:07.791Z,5.28
2023-04-09T17:16:33.806Z,5.65
2023-04-09T17:19:00.108Z,5.68
2023-04-09T17:21:26.702Z,5.88
2023-04-09T17:23:52.722Z,5.63
2023-04-09T17:26:19.955Z,8.10
2023-04-09T17:28:46.325Z,5.80
2023-04-09T17:31:13.926Z,6.53
2023-04-09T17:33:43.442Z,5.10
2023-04-09T17:36:09.980Z,5.03
2023-04-09T17:38:36.014Z,5.90
2023-04-09T17:41:02.130Z,6.25
2023-04-09T17:43:28.043Z,5.65
2023-04-09T17:45:53.956Z,5.07
2023-04-09T17:48:20.015Z,5.40
2023-04-09T17:50:46.049Z,5.50
2023-04-09T17:53:12.053Z,6.38
2023-04-09T17:55:38.184Z,6.38
2023-04-09T17:58:04.303Z,6.13
2023-04-09T18:00:31.111Z,5.85
2023-04-09T18:02:57.503Z,5.10
2023-04-09T18:05:25.244Z,5.10
2023-04-09T18:07:51.761Z,7.43
2023-04-09T18:10:19.254Z,6.43
2023-04-09T18:12:45.294Z,6.07
2023-04-09T18:15:11.276Z,6.28
2023-04-09T18:17:37.260Z,6.88
2023-04-09T18:20:03.488Z,5.72
2023-04-09T18:22:30.065Z,6.00
2023-04-09T18:24:56.030Z,5.95
2023-04-09T18:27:22.121Z,5.65
2023-04-09T18:29:51.140Z,6.05
2023-04-09T18:32:18.850Z,5.50
2023-04-09T18:34:46.387Z,6.38
2023-04-09T18:37:12.588Z,6.90
2023-04-09T18:39:38.604Z,6.30
2023-04-09T18:42:04.598Z,6.97
2023-04-09T18:44:33.109Z,6.63
2023-04-09T18:47:01.338Z,6.80
2023-04-09T18:49:27.478Z,7.00
2023-04-09T18:51:54.007Z,6.47
2023-04-09T18:54:20.282Z,7.82
2023-04-09T18:56:46.699Z,6.95
2023-04-09T18:59:12.663Z,9.27
2023-04-09T19:01:38.755Z,8.23
2023-04-09T19:04:04.974Z,9.10
2023-04-09T19:06:32.765Z,12.20
2023-04-09T19:08:58.705Z,12.73
2023-04-09T19:11:25.423Z,11.55
2023-04-09T19:13:51.879Z,13.07
2023-04-09T19:16:19.140Z,14.55
2023-04-09T19:18:45.060Z,14.40
2023-04-09T19:21:10.995Z,14.18
2023-04-09T19:23:37.076Z,14.80
2023-04-09T19:26:03.358Z,19.00
2023-04-09T19:28:29.424Z,18.10
2023-04-09T19:30:55.832Z,19.75
2023-04-09T19:33:23.910Z,20.02
2023-04-09T19:35:51.066Z,23.35
2023-04-09T19:38:18.158Z,21.33
2023-04-09T19:40:45.460Z,25.40
2023-04-09T19:43:11.754Z,27.27
2023-04-09T19:45:38.282Z,25.98
2023-04-09T19:48:05.434Z,27.40
2023-04-09T19:50:40.564Z,34.10
2023-04-09T19:53:06.588Z,27.98
2023-04-09T19:55:33.326Z,28.15
2023-04-09T19:57:59.402Z,26.98
2023-04-09T20:00:25.928Z,32.17
2023-04-09T20:02:52.835Z,30.60
2023-04-09T20:05:20.373Z,32.55
2023-04-09T20:07:51.309Z,41.85
2023-04-09T20:10:17.532Z,39.25
2023-04-09T20:12:47.651Z,39.97
2023-04-09T20:15:14.666Z,43.00
2023-04-09T20:17:43.781Z,45.20
2023-04-09T20:20:11.105Z,48.70
2023-04-09T20:22:42.316Z,50.38
2023-04-09T20:25:10.782Z,50.90
2023-04-09T20:27:37.436Z,60.85
2023-04-09T20:30:04.375Z,59.10
2023-04-09T20:32:30.383Z,62.58
2023-04-09T20:34:56.434Z,67.00
2023-04-09T20:37:22.430Z,66.22
2023-04-09T20:39:48.400Z,66.70
2023-04-09T20:42:14.850Z,66.90
2023-04-09T20:44:41.007Z,65.65
2023-04-09T20:47:07.324Z,71.15
2023-04-09T20:49:33.501Z,74.57
2023-04-09T20:51:59.999Z,77.43
2023-04-09T20:54:27.238Z,71.45
2023-04-09T20:56:53.872Z,66.03
2023-04-09T20:59:19.961Z,73.72
2023-04-09T21:01:46.131Z,71.90
2023-04-09T21:04:13.271Z,70.00
2023-04-09T21:06:39.851Z,73.10
2023-04-09T21:09:05.869Z,61.70
2023-04-09T21:11:31.916Z,64.72
2023-04-09T21:13:58.269Z,57.70
2023-04-09T21:16:26.479Z,63.22
2023-04-09T21:18:53.002Z,58.25
2023-04-09T21:21:19.241Z,61.75
2023-04-09T21:23:45.350Z,59.55
2023-04-09T21:26:11.291Z,55.90
2023-04-09T21:28:46.616Z,54.28
2023-04-09T21:31:12.596Z,62.65
2023-04-09T21:33:38.513Z,67.97
2023-04-09T21:36:06.470Z,75.05
2023-04-09T21:38:32.516Z,74.55
2023-04-09T21:40:59.141Z,80.10
2023-04-09T21:43:28.512Z,81.65
2023-04-09T21:45:58.066Z,84.88
2023-04-09T21:48:25.031Z,89.53
2023-04-09T21:50:51.134Z,96.15
2023-04-09T21:53:17.616Z,109.15
2023-04-09T21:55:43.639Z,107.75
2023-04-09T21:58:11.202Z,109.78
2023-04-09T22:00:37.654Z,105.05
2023-04-09T22:03:04.377Z,113.20
2023-04-09T22:05:33.723Z,111.00
2023-04-09T22:07:59.990Z,111.32
2023-04-09T22:10:27.122Z,102.53
2023-04-09T22:12:53.736Z,111.05
2023-04-09T22:15:20.695Z,109.30
2023-04-09T22:17:47.093Z,105.75
2023-04-09T22:20:13.466Z,110.32
2023-04-09T22:22:41.369Z,114.43
2023-04-09T22:25:07.762Z,112.60
2023-04-09T22:27:33.928Z,109.45
2023-04-09T22:30:01.771Z,104.38
2023-04-09T22:32:28.136Z,105.63
2023-04-09T22:34:54.151Z,105.63
2023-04-09T22:37:20.302Z,92.25
2023-04-09T22:39:46.487Z,90.03
2023-04-09T22:42:12.832Z,95.15
2023-04-09T22:44:39.114Z,87.28
2023-04-09T22:47:05.567Z,81.63
2023-04-09T22:49:31.957Z,73.47
2023-04-09T22:51:57.836Z,77.88
2023-04-09T22:54:24.475Z,77.22
2023-04-09T22:56:50.861Z,66.75
2023-04-09T22:59:17.450Z,75.03
2023-04-09T23:01:43.543Z,73.18
2023-04-09T23:04:09.766Z,72.18
2023-04-09T23:06:35.766Z,70.13
2023-04-09T23:09:02.208Z,71.95
2023-04-09T23:11:28.489Z,62.97
2023-04-09T23:13:54.394Z,65.07
2023-04-09T23:16:21.274Z,59.20
2023-04-09T23:18:47.225Z,56.65
2023-04-09T23:21:13.154Z,50.13
2023-04-09T23:23:39.293Z,44.78
2023-04-09T23:26:06.560Z,33.70
2023-04-09T23:28:32.804Z,35.55
2023-04-09T23:30:58.721Z,39.78
2023-04-09T23:33:25.601Z,34.95
2023-04-09T23:35:51.673Z,41.08
2023-04-09T23:38:17.628Z,40.97
2023-04-09T23:40:43.609Z,34.08
2023-04-09T23:43:09.656Z,34.17
2023-04-09T23:45:36.190Z,33.30
2023-04-09T23:48:03.328Z,30.55
2023-04-09T23:50:29.715Z,31.95
2023-04-09T23:53:00.336Z,28.65
2023-04-09T23:55:26.579Z,28.83
2023-04-09T23:57:52.490Z,30.27
